sensor_id;sensor_type;location;lat;lon;timestamp;P1;durP1;ratioP1;P2;durP2;ratioP2
74523;SDS011;63074;44.696;10.358;2023-07-20T00:00:56;5.20;;;2.50;;
74523;SDS011;63074;44.696;10.358;2023-07-20T00:03:22;7.35;;;2.20;;
74523;SDS011;63074;44.696;10.358;2023-07-20T00:05:50;7.90;;;2.80;;
74523;SDS011;63074;44.696;10.358;2023-07-20T00:08:17;5.47;;;2.28;;
74523;SDS011;63074;44.696;10.358;2023-07-20T00:16:38;8.75;;;2.08;;
74523;SDS011;63074;44.696;10.358;2023-07-20T00:19:04;9.23;;;2.42;;
74523;SDS011;63074;44.696;10.358;2023-07-20T00:21:32;7.78;;;2.03;;
74523;SDS011;63074;44.696;10.358;2023-07-20T00:23:58;9.80;;;2.72;;
74523;SDS011;63074;44.696;10.358;2023-07-20T00:26:24;7.95;;;3.10;;
74523;SDS011;63074;44.696;10.358;2023-07-20T00:28:50;5.50;;;2.25;;
74523;SDS011;63074;44.696;10.358;2023-07-20T00:31:16;8.70;;;2.45;;
74523;SDS011;63074;44.696;10.358;2023-07-20T00:33:43;6.05;;;2.20;;
74523;SDS011;63074;44.696;10.358;2023-07-20T00:36:09;5.53;;;2.42;;
74523;SDS011;63074;44.696;10.358;2023-07-20T00:38:36;7.15;;;2.70;;
74523;SDS011;63074;44.696;10.358;2023-07-20T00:41:02;9.40;;;2.72;;
74523;SDS011;63074;44.696;10.358;2023-07-20T00:43:28;11.15;;;3.28;;
74523;SDS011;63074;44.696;10.358;2023-07-20T00:45:54;4.35;;;2.30;;
74523;SDS011;63074;44.696;10.358;2023-07-20T00:48:21;6.53;;;2.55;;
74523;SDS011;63074;44.696;10.358;2023-07-20T00:50:48;7.30;;;3.10;;
74523;SDS011;63074;44.696;10.358;2023-07-20T00:53:15;5.03;;;2.05;;
74523;SDS011;63074;44.696;10.358;2023-07-20T00:55:41;6.38;;;2.25;;
74523;SDS011;63074;44.696;10.358;2023-07-20T00:58:08;4.47;;;2.28;;
74523;SDS011;63074;44.696;10.358;2023-07-20T01:00:34;5.88;;;2.08;;
74523;SDS011;63074;44.696;10.358;2023-07-20T01:03:01;4.78;;;1.92;;
74523;SDS011;63074;44.696;10.358;2023-07-20T01:08:00;4.93;;;1.30;;
74523;SDS011;63074;44.696;10.358;2023-07-20T01:10:46;3.58;;;1.38;;
74523;SDS011;63074;44.696;10.358;2023-07-20T01:13:22;3.20;;;1.20;;
74523;SDS011;63074;44.696;10.358;2023-07-20T01:15:53;5.93;;;1.77;;
74523;SDS011;63074;44.696;10.358;2023-07-20T01:18:25;3.95;;;1.65;;
74523;SDS011;63074;44.696;10.358;2023-07-20T01:20:51;3.63;;;2.00;;
74523;SDS011;63074;44.696;10.358;2023-07-20T01:31:42;4.55;;;1.73;;
74523;SDS011;63074;44.696;10.358;2023-07-20T01:34:11;4.13;;;1.92;;
74523;SDS011;63074;44.696;10.358;2023-07-20T01:36:42;4.40;;;1.73;;
74523;SDS011;63074;44.696;10.358;2023-07-20T01:39:10;5.25;;;1.40;;
74523;SDS011;63074;44.696;10.358;2023-07-20T01:41:37;5.03;;;1.60;;
74523;SDS011;63074;44.696;10.358;2023-07-20T01:44:03;4.65;;;1.95;;
74523;SDS011;63074;44.696;10.358;2023-07-20T01:46:30;5.47;;;1.42;;
74523;SDS011;63074;44.696;10.358;2023-07-20T01:48:57;5.57;;;2.47;;
74523;SDS011;63074;44.696;10.358;2023-07-20T01:51:23;3.65;;;1.55;;
74523;SDS011;63074;44.696;10.358;2023-07-20T01:53:49;6.03;;;1.83;;
74523;SDS011;63074;44.696;10.358;2023-07-20T01:56:15;5.75;;;1.92;;
74523;SDS011;63074;44.696;10.358;2023-07-20T01:58:41;5.55;;;2.08;;
74523;SDS011;63074;44.696;10.358;2023-07-20T02:01:08;4.97;;;1.70;;
74523;SDS011;63074;44.696;10.358;2023-07-20T02:03:34;3.58;;;1.60;;
74523;SDS011;63074;44.696;10.358;2023-07-20T02:06:00;5.70;;;1.95;;
74523;SDS011;63074;44.696;10.358;2023-07-20T02:10:53;4.28;;;2.20;;
74523;SDS011;63074;44.696;10.358;2023-07-20T02:13:19;8.20;;;2.22;;
74523;SDS011;63074;44.696;10.358;2023-07-20T02:15:45;5.28;;;1.92;;
74523;SDS011;63074;44.696;10.358;2023-07-20T02:18:12;5.53;;;2.20;;
74523;SDS011;63074;44.696;10.358;2023-07-20T02:20:40;3.95;;;2.00;;
74523;SDS011;63074;44.696;10.358;2023-07-20T02:23:07;4.15;;;1.90;;
74523;SDS011;63074;44.696;10.358;2023-07-20T02:25:33;4.55;;;2.00;;
74523;SDS011;63074;44.696;10.358;2023-07-20T02:27:59;6.93;;;1.98;;
74523;SDS011;63074;44.696;10.358;2023-07-20T02:30:25;4.90;;;1.92;;
74523;SDS011;63074;44.696;10.358;2023-07-20T02:32:51;5.80;;;2.53;;
74523;SDS011;63074;44.696;10.358;2023-07-20T02:35:17;5.28;;;2.65;;
74523;SDS011;63074;44.696;10.358;2023-07-20T02:37:44;5.33;;;2.13;;
74523;SDS011;63074;44.696;10.358;2023-07-20T02:40:10;4.95;;;2.55;;
74523;SDS011;63074;44.696;10.358;2023-07-20T02:42:36;5.97;;;2.70;;
74523;SDS011;63074;44.696;10.358;2023-07-20T02:45:03;6.82;;;2.40;;
74523;SDS011;63074;44.696;10.358;2023-07-20T02:47:30;3.90;;;2.53;;
74523;SDS011;63074;44.696;10.358;2023-07-20T02:49:56;5.38;;;1.98;;
74523;SDS011;63074;44.696;10.358;2023-07-20T02:52:22;4.75;;;2.15;;
74523;SDS011;63074;44.696;10.358;2023-07-20T02:54:49;5.13;;;2.60;;
74523;SDS011;63074;44.696;10.358;2023-07-20T02:57:15;6.13;;;2.08;;
74523;SDS011;63074;44.696;10.358;2023-07-20T02:59:41;6.22;;;2.47;;
74523;SDS011;63074;44.696;10.358;2023-07-20T03:02:08;4.07;;;1.88;;
74523;SDS011;63074;44.696;10.358;2023-07-20T03:04:37;5.13;;;2.15;;
74523;SDS011;63074;44.696;10.358;2023-07-20T03:07:04;5.35;;;1.80;;
74523;SDS011;63074;44.696;10.358;2023-07-20T03:09:34;4.03;;;1.90;;
74523;SDS011;63074;44.696;10.358;2023-07-20T03:12:00;5.45;;;2.60;;
74523;SDS011;63074;44.696;10.358;2023-07-20T03:16:53;5.03;;;2.45;;
74523;SDS011;63074;44.696;10.358;2023-07-20T03:19:19;5.68;;;2.58;;
74523;SDS011;63074;44.696;10.358;2023-07-20T03:21:45;4.28;;;2.05;;
74523;SDS011;63074;44.696;10.358;2023-07-20T03:24:11;7.80;;;2.50;;
74523;SDS011;63074;44.696;10.358;2023-07-20T03:26:37;5.93;;;2.25;;
74523;SDS011;63074;44.696;10.358;2023-07-20T03:29:04;6.75;;;2.10;;
74523;SDS011;63074;44.696;10.358;2023-07-20T03:31:30;5.43;;;2.53;;
74523;SDS011;63074;44.696;10.358;2023-07-20T03:33:56;3.58;;;1.70;;
74523;SDS011;63074;44.696;10.358;2023-07-20T03:36:22;6.75;;;2.92;;
74523;SDS011;63074;44.696;10.358;2023-07-20T03:38:49;5.60;;;2.20;;
74523;SDS011;63074;44.696;10.358;2023-07-20T03:41:15;3.63;;;1.58;;
74523;SDS011;63074;44.696;10.358;2023-07-20T03:43:41;4.95;;;1.75;;
74523;SDS011;63074;44.696;10.358;2023-07-20T03:46:07;6.93;;;1.85;;
74523;SDS011;63074;44.696;10.358;2023-07-20T03:48:33;7.18;;;2.00;;
74523;SDS011;63074;44.696;10.358;2023-07-20T03:51:00;3.47;;;2.05;;
74523;SDS011;63074;44.696;10.358;2023-07-20T03:55:52;3.72;;;1.92;;
74523;SDS011;63074;44.696;10.358;2023-07-20T03:58:19;4.45;;;2.53;;
74523;SDS011;63074;44.696;10.358;2023-07-20T04:00:46;4.00;;;2.35;;
74523;SDS011;63074;44.696;10.358;2023-07-20T04:03:15;5.60;;;1.70;;
74523;SDS011;63074;44.696;10.358;2023-07-20T04:05:43;4.65;;;2.22;;
74523;SDS011;63074;44.696;10.358;2023-07-20T04:08:09;5.78;;;2.03;;
74523;SDS011;63074;44.696;10.358;2023-07-20T04:10:36;6.85;;;2.20;;
74523;SDS011;63074;44.696;10.358;2023-07-20T04:13:03;5.45;;;2.53;;
74523;SDS011;63074;44.696;10.358;2023-07-20T04:15:29;6.85;;;1.98;;
74523;SDS011;63074;44.696;10.358;2023-07-20T04:17:56;4.43;;;1.73;;
74523;SDS011;63074;44.696;10.358;2023-07-20T04:20:23;3.38;;;1.67;;
74523;SDS011;63074;44.696;10.358;2023-07-20T04:22:49;6.70;;;2.30;;
74523;SDS011;63074;44.696;10.358;2023-07-20T04:25:17;4.85;;;2.25;;
74523;SDS011;63074;44.696;10.358;2023-07-20T04:27:43;7.18;;;2.38;;
74523;SDS011;63074;44.696;10.358;2023-07-20T04:30:10;7.07;;;2.60;;
74523;SDS011;63074;44.696;10.358;2023-07-20T04:32:38;4.20;;;1.95;;
74523;SDS011;63074;44.696;10.358;2023-07-20T04:35:10;7.13;;;2.25;;
74523;SDS011;63074;44.696;10.358;2023-07-20T04:37:41;9.45;;;2.97;;
74523;SDS011;63074;44.696;10.358;2023-07-20T04:40:11;5.78;;;2.45;;
74523;SDS011;63074;44.696;10.358;2023-07-20T04:42:40;5.43;;;1.88;;
74523;SDS011;63074;44.696;10.358;2023-07-20T04:45:07;8.98;;;2.72;;
74523;SDS011;63074;44.696;10.358;2023-07-20T04:47:33;9.40;;;2.30;;
74523;SDS011;63074;44.696;10.358;2023-07-20T04:49:59;6.60;;;1.92;;
74523;SDS011;63074;44.696;10.358;2023-07-20T04:52:26;6.13;;;2.30;;
74523;SDS011;63074;44.696;10.358;2023-07-20T04:54:52;4.43;;;2.15;;
74523;SDS011;63074;44.696;10.358;2023-07-20T04:57:18;4.20;;;2.35;;
74523;SDS011;63074;44.696;10.358;2023-07-20T04:59:44;8.55;;;2.60;;
74523;SDS011;63074;44.696;10.358;2023-07-20T05:02:10;5.47;;;2.05;;
74523;SDS011;63074;44.696;10.358;2023-07-20T05:04:36;5.60;;;2.65;;
74523;SDS011;63074;44.696;10.358;2023-07-20T05:07:02;6.43;;;2.20;;
74523;SDS011;63074;44.696;10.358;2023-07-20T05:09:29;5.47;;;2.33;;
74523;SDS011;63074;44.696;10.358;2023-07-20T05:11:55;6.28;;;2.10;;
74523;SDS011;63074;44.696;10.358;2023-07-20T05:14:21;4.90;;;1.88;;
74523;SDS011;63074;44.696;10.358;2023-07-20T05:16:47;7.10;;;2.00;;
74523;SDS011;63074;44.696;10.358;2023-07-20T05:19:14;4.40;;;2.00;;
74523;SDS011;63074;44.696;10.358;2023-07-20T05:21:40;4.88;;;1.90;;
74523;SDS011;63074;44.696;10.358;2023-07-20T05:24:06;5.70;;;2.20;;
74523;SDS011;63074;44.696;10.358;2023-07-20T05:26:32;4.22;;;2.53;;
74523;SDS011;63074;44.696;10.358;2023-07-20T05:28:59;8.95;;;2.30;;
74523;SDS011;63074;44.696;10.358;2023-07-20T05:31:25;5.93;;;2.90;;
74523;SDS011;63074;44.696;10.358;2023-07-20T05:33:52;7.75;;;2.83;;
74523;SDS011;63074;44.696;10.358;2023-07-20T05:36:18;7.10;;;2.70;;
74523;SDS011;63074;44.696;10.358;2023-07-20T05:38:44;8.77;;;2.90;;
74523;SDS011;63074;44.696;10.358;2023-07-20T05:41:10;5.57;;;2.53;;
74523;SDS011;63074;44.696;10.358;2023-07-20T05:43:37;7.28;;;2.67;;
74523;SDS011;63074;44.696;10.358;2023-07-20T05:46:03;7.13;;;2.95;;
74523;SDS011;63074;44.696;10.358;2023-07-20T05:48:30;6.00;;;2.67;;
74523;SDS011;63074;44.696;10.358;2023-07-20T05:50:56;5.97;;;3.30;;
74523;SDS011;63074;44.696;10.358;2023-07-20T05:53:23;7.85;;;3.13;;
74523;SDS011;63074;44.696;10.358;2023-07-20T05:55:52;6.22;;;3.63;;
74523;SDS011;63074;44.696;10.358;2023-07-20T05:58:19;7.30;;;3.03;;
74523;SDS011;63074;44.696;10.358;2023-07-20T06:00:49;6.13;;;3.38;;
74523;SDS011;63074;44.696;10.358;2023-07-20T06:03:16;10.07;;;2.97;;
74523;SDS011;63074;44.696;10.358;2023-07-20T06:05:42;7.15;;;3.15;;
74523;SDS011;63074;44.696;10.358;2023-07-20T06:08:08;6.20;;;2.88;;
74523;SDS011;63074;44.696;10.358;2023-07-20T06:10:34;4.65;;;2.63;;
74523;SDS011;63074;44.696;10.358;2023-07-20T06:13:01;8.07;;;3.38;;
74523;SDS011;63074;44.696;10.358;2023-07-20T06:17:53;6.25;;;2.88;;
74523;SDS011;63074;44.696;10.358;2023-07-20T06:20:21;6.35;;;2.70;;
74523;SDS011;63074;44.696;10.358;2023-07-20T06:22:47;8.10;;;2.53;;
74523;SDS011;63074;44.696;10.358;2023-07-20T06:25:13;6.93;;;2.83;;
74523;SDS011;63074;44.696;10.358;2023-07-20T06:27:40;5.28;;;2.45;;
74523;SDS011;63074;44.696;10.358;2023-07-20T06:30:06;9.05;;;2.92;;
74523;SDS011;63074;44.696;10.358;2023-07-20T06:32:33;6.97;;;2.90;;
74523;SDS011;63074;44.696;10.358;2023-07-20T06:34:59;8.43;;;2.90;;
74523;SDS011;63074;44.696;10.358;2023-07-20T06:37:25;5.28;;;2.40;;
74523;SDS011;63074;44.696;10.358;2023-07-20T06:39:51;11.05;;;3.63;;
74523;SDS011;63074;44.696;10.358;2023-07-20T06:42:17;9.93;;;3.50;;
74523;SDS011;63074;44.696;10.358;2023-07-20T06:44:44;6.20;;;3.05;;
74523;SDS011;63074;44.696;10.358;2023-07-20T06:47:10;7.45;;;2.63;;
74523;SDS011;63074;44.696;10.358;2023-07-20T06:49:37;8.18;;;2.55;;
74523;SDS011;63074;44.696;10.358;2023-07-20T06:52:03;6.53;;;2.27;;
74523;SDS011;63074;44.696;10.358;2023-07-20T06:54:30;6.35;;;2.47;;
74523;SDS011;63074;44.696;10.358;2023-07-20T06:56:56;7.25;;;2.72;;
74523;SDS011;63074;44.696;10.358;2023-07-20T06:59:22;5.82;;;2.58;;
74523;SDS011;63074;44.696;10.358;2023-07-20T07:01:49;10.07;;;2.72;;
74523;SDS011;63074;44.696;10.358;2023-07-20T07:04:15;6.40;;;2.47;;
74523;SDS011;63074;44.696;10.358;2023-07-20T07:06:41;4.95;;;2.38;;
74523;SDS011;63074;44.696;10.358;2023-07-20T07:09:08;6.65;;;2.90;;
74523;SDS011;63074;44.696;10.358;2023-07-20T07:11:34;9.27;;;2.75;;
74523;SDS011;63074;44.696;10.358;2023-07-20T07:14:00;5.78;;;3.13;;
74523;SDS011;63074;44.696;10.358;2023-07-20T07:16:26;8.32;;;3.42;;
74523;SDS011;63074;44.696;10.358;2023-07-20T07:18:56;6.53;;;2.50;;
74523;SDS011;63074;44.696;10.358;2023-07-20T07:21:23;6.07;;;2.22;;
74523;SDS011;63074;44.696;10.358;2023-07-20T07:23:50;10.65;;;3.05;;
74523;SDS011;63074;44.696;10.358;2023-07-20T07:26:19;9.45;;;2.97;;
74523;SDS011;63074;44.696;10.358;2023-07-20T07:28:46;6.57;;;2.45;;
74523;SDS011;63074;44.696;10.358;2023-07-20T07:31:12;4.72;;;2.03;;
74523;SDS011;63074;44.696;10.358;2023-07-20T07:33:39;7.53;;;2.60;;
74523;SDS011;63074;44.696;10.358;2023-07-20T07:36:05;8.85;;;2.72;;
74523;SDS011;63074;44.696;10.358;2023-07-20T07:38:32;7.32;;;2.70;;
74523;SDS011;63074;44.696;10.358;2023-07-20T07:40:58;5.70;;;2.47;;
74523;SDS011;63074;44.696;10.358;2023-07-20T07:43:24;8.25;;;2.55;;
74523;SDS011;63074;44.696;10.358;2023-07-20T07:45:53;9.77;;;3.00;;
74523;SDS011;63074;44.696;10.358;2023-07-20T07:48:20;8.77;;;2.42;;
74523;SDS011;63074;44.696;10.358;2023-07-20T07:50:47;7.07;;;2.80;;
74523;SDS011;63074;44.696;10.358;2023-07-20T07:53:15;6.82;;;2.55;;
74523;SDS011;63074;44.696;10.358;2023-07-20T07:55:41;4.72;;;2.33;;
74523;SDS011;63074;44.696;10.358;2023-07-20T07:58:07;5.05;;;2.85;;
74523;SDS011;63074;44.696;10.358;2023-07-20T08:00:33;6.53;;;2.33;;
74523;SDS011;63074;44.696;10.358;2023-07-20T08:02:59;5.55;;;2.40;;
74523;SDS011;63074;44.696;10.358;2023-07-20T08:05:26;4.97;;;2.47;;
74523;SDS011;63074;44.696;10.358;2023-07-20T08:07:52;7.40;;;3.17;;
74523;SDS011;63074;44.696;10.358;2023-07-20T08:10:18;6.75;;;2.58;;
74523;SDS011;63074;44.696;10.358;2023-07-20T08:12:44;7.72;;;2.97;;
74523;SDS011;63074;44.696;10.358;2023-07-20T08:15:11;5.60;;;2.40;;
74523;SDS011;63074;44.696;10.358;2023-07-20T08:17:39;9.30;;;3.42;;
74523;SDS011;63074;44.696;10.358;2023-07-20T08:20:14;8.38;;;3.10;;
74523;SDS011;63074;44.696;10.358;2023-07-20T08:22:42;10.30;;;3.00;;
74523;SDS011;63074;44.696;10.358;2023-07-20T08:25:08;8.48;;;2.88;;
74523;SDS011;63074;44.696;10.358;2023-07-20T08:27:35;9.57;;;3.00;;
74523;SDS011;63074;44.696;10.358;2023-07-20T08:30:02;7.88;;;2.88;;
74523;SDS011;63074;44.696;10.358;2023-07-20T08:32:33;6.78;;;3.08;;
74523;SDS011;63074;44.696;10.358;2023-07-20T08:34:59;5.78;;;2.92;;
74523;SDS011;63074;44.696;10.358;2023-07-20T08:37:25;7.13;;;3.20;;
74523;SDS011;63074;44.696;10.358;2023-07-20T08:39:51;5.55;;;2.90;;
74523;SDS011;63074;44.696;10.358;2023-07-20T08:42:17;7.97;;;3.33;;
74523;SDS011;63074;44.696;10.358;2023-07-20T08:44:44;6.95;;;3.05;;
74523;SDS011;63074;44.696;10.358;2023-07-20T08:47:13;8.52;;;2.67;;
74523;SDS011;63074;44.696;10.358;2023-07-20T08:49:41;11.68;;;3.33;;
74523;SDS011;63074;44.696;10.358;2023-07-20T08:52:08;6.90;;;2.83;;
74523;SDS011;63074;44.696;10.358;2023-07-20T08:54:34;8.35;;;2.95;;
74523;SDS011;63074;44.696;10.358;2023-07-20T08:57:02;6.88;;;2.78;;
74523;SDS011;63074;44.696;10.358;2023-07-20T09:01:59;6.68;;;2.72;;
74523;SDS011;63074;44.696;10.358;2023-07-20T09:04:27;8.45;;;3.00;;
74523;SDS011;63074;44.696;10.358;2023-07-20T09:06:53;6.07;;;2.90;;
74523;SDS011;63074;44.696;10.358;2023-07-20T09:09:19;5.75;;;3.20;;
74523;SDS011;63074;44.696;10.358;2023-07-20T09:11:47;6.15;;;2.75;;
74523;SDS011;63074;44.696;10.358;2023-07-20T09:14:16;5.78;;;3.38;;
74523;SDS011;63074;44.696;10.358;2023-07-20T09:16:49;6.53;;;3.65;;
74523;SDS011;63074;44.696;10.358;2023-07-20T09:19:17;7.70;;;2.60;;
74523;SDS011;63074;44.696;10.358;2023-07-20T09:21:47;9.20;;;3.05;;
74523;SDS011;63074;44.696;10.358;2023-07-20T09:24:15;9.35;;;3.05;;
74523;SDS011;63074;44.696;10.358;2023-07-20T09:26:46;8.82;;;3.05;;
74523;SDS011;63074;44.696;10.358;2023-07-20T09:29:13;5.90;;;3.15;;
74523;SDS011;63074;44.696;10.358;2023-07-20T09:31:43;6.00;;;2.88;;
74523;SDS011;63074;44.696;10.358;2023-07-20T09:36:53;5.22;;;3.20;;
74523;SDS011;63074;44.696;10.358;2023-07-20T09:39:20;8.55;;;3.63;;
74523;SDS011;63074;44.696;10.358;2023-07-20T09:41:47;7.93;;;3.38;;
74523;SDS011;63074;44.696;10.358;2023-07-20T09:44:14;7.05;;;3.72;;
74523;SDS011;63074;44.696;10.358;2023-07-20T09:46:41;7.13;;;3.30;;
74523;SDS011;63074;44.696;10.358;2023-07-20T09:49:11;6.40;;;2.97;;
74523;SDS011;63074;44.696;10.358;2023-07-20T09:51:38;8.00;;;4.35;;
74523;SDS011;63074;44.696;10.358;2023-07-20T09:54:06;8.80;;;3.58;;
74523;SDS011;63074;44.696;10.358;2023-07-20T09:56:33;6.88;;;2.92;;
74523;SDS011;63074;44.696;10.358;2023-07-20T09:59:00;7.43;;;3.85;;
74523;SDS011;63074;44.696;10.358;2023-07-20T10:01:26;7.07;;;3.60;;
74523;SDS011;63074;44.696;10.358;2023-07-20T10:03:53;6.43;;;3.20;;
74523;SDS011;63074;44.696;10.358;2023-07-20T10:06:23;8.38;;;3.10;;
74523;SDS011;63074;44.696;10.358;2023-07-20T10:08:53;9.00;;;3.40;;
74523;SDS011;63074;44.696;10.358;2023-07-20T10:11:25;4.70;;;3.13;;
74523;SDS011;63074;44.696;10.358;2023-07-20T10:13:53;9.15;;;3.50;;
74523;SDS011;63074;44.696;10.358;2023-07-20T10:19:07;7.00;;;4.07;;
74523;SDS011;63074;44.696;10.358;2023-07-20T10:21:42;8.82;;;3.63;;
74523;SDS011;63074;44.696;10.358;2023-07-20T10:24:16;6.90;;;3.70;;
74523;SDS011;63074;44.696;10.358;2023-07-20T10:26:43;7.40;;;3.80;;
74523;SDS011;63074;44.696;10.358;2023-07-20T10:29:09;8.02;;;3.67;;
74523;SDS011;63074;44.696;10.358;2023-07-20T10:31:37;5.97;;;3.78;;
74523;SDS011;63074;44.696;10.358;2023-07-20T10:34:04;6.30;;;3.50;;
74523;SDS011;63074;44.696;10.358;2023-07-20T10:36:30;7.32;;;3.80;;
74523;SDS011;63074;44.696;10.358;2023-07-20T10:38:57;8.20;;;3.85;;
74523;SDS011;63074;44.696;10.358;2023-07-20T10:41:27;6.82;;;3.92;;
74523;SDS011;63074;44.696;10.358;2023-07-20T10:44:03;7.00;;;3.30;;
74523;SDS011;63074;44.696;10.358;2023-07-20T10:46:41;7.07;;;3.45;;
74523;SDS011;63074;44.696;10.358;2023-07-20T10:49:09;7.15;;;3.10;;
74523;SDS011;63074;44.696;10.358;2023-07-20T10:51:44;5.68;;;3.05;;
74523;SDS011;63074;44.696;10.358;2023-07-20T10:56:50;7.47;;;3.70;;
74523;SDS011;63074;44.696;10.358;2023-07-20T11:01:55;5.22;;;3.17;;
74523;SDS011;63074;44.696;10.358;2023-07-20T11:06:56;6.82;;;3.28;;
74523;SDS011;63074;44.696;10.358;2023-07-20T11:09:22;8.48;;;3.30;;
74523;SDS011;63074;44.696;10.358;2023-07-20T11:11:56;4.80;;;2.67;;
74523;SDS011;63074;44.696;10.358;2023-07-20T11:14:35;6.25;;;2.92;;
74523;SDS011;63074;44.696;10.358;2023-07-20T11:17:19;5.05;;;3.22;;
74523;SDS011;63074;44.696;10.358;2023-07-20T11:19:56;6.10;;;3.83;;
74523;SDS011;63074;44.696;10.358;2023-07-20T11:22:23;6.87;;;3.57;;
74523;SDS011;63074;44.696;10.358;2023-07-20T11:24:49;7.65;;;3.58;;
74523;SDS011;63074;44.696;10.358;2023-07-20T11:27:20;6.57;;;4.18;;
74523;SDS011;63074;44.696;10.358;2023-07-20T11:29:47;7.97;;;3.88;;
74523;SDS011;63074;44.696;10.358;2023-07-20T11:32:24;6.45;;;3.17;;
74523;SDS011;63074;44.696;10.358;2023-07-20T11:34:50;5.82;;;3.55;;
74523;SDS011;63074;44.696;10.358;2023-07-20T11:37:16;7.68;;;3.40;;
74523;SDS011;63074;44.696;10.358;2023-07-20T11:39:46;6.75;;;3.35;;
74523;SDS011;63074;44.696;10.358;2023-07-20T11:42:13;7.93;;;3.22;;
74523;SDS011;63074;44.696;10.358;2023-07-20T11:44:40;9.93;;;3.78;;
74523;SDS011;63074;44.696;10.358;2023-07-20T11:47:10;4.53;;;2.90;;
74523;SDS011;63074;44.696;10.358;2023-07-20T11:49:40;5.90;;;2.92;;
74523;SDS011;63074;44.696;10.358;2023-07-20T11:52:11;6.82;;;4.03;;
74523;SDS011;63074;44.696;10.358;2023-07-20T11:54:41;8.05;;;3.30;;
74523;SDS011;63074;44.696;10.358;2023-07-20T11:57:18;6.93;;;3.33;;
74523;SDS011;63074;44.696;10.358;2023-07-20T11:59:57;8.05;;;3.55;;
74523;SDS011;63074;44.696;10.358;2023-07-20T12:04:55;7.82;;;3.17;;
74523;SDS011;63074;44.696;10.358;2023-07-20T12:07:22;4.50;;;2.90;;
74523;SDS011;63074;44.696;10.358;2023-07-20T12:10:12;8.13;;;3.67;;
74523;SDS011;63074;44.696;10.358;2023-07-20T12:12:38;6.53;;;3.63;;
74523;SDS011;63074;44.696;10.358;2023-07-20T12:17:54;6.43;;;3.40;;
74523;SDS011;63074;44.696;10.358;2023-07-20T12:20:25;6.75;;;3.47;;
74523;SDS011;63074;44.696;10.358;2023-07-20T12:22:55;6.82;;;3.15;;
74523;SDS011;63074;44.696;10.358;2023-07-20T12:27:53;7.20;;;3.75;;
74523;SDS011;63074;44.696;10.358;2023-07-20T12:30:20;7.40;;;3.40;;
74523;SDS011;63074;44.696;10.358;2023-07-20T12:32:46;8.52;;;3.15;;
74523;SDS011;63074;44.696;10.358;2023-07-20T12:35:12;8.02;;;3.85;;
74523;SDS011;63074;44.696;10.358;2023-07-20T12:37:39;6.53;;;3.22;;
74523;SDS011;63074;44.696;10.358;2023-07-20T12:40:06;7.20;;;3.20;;
74523;SDS011;63074;44.696;10.358;2023-07-20T12:42:35;6.80;;;3.10;;
74523;SDS011;63074;44.696;10.358;2023-07-20T12:45:02;6.25;;;3.00;;
74523;SDS011;63074;44.696;10.358;2023-07-20T12:49:55;6.57;;;3.67;;
74523;SDS011;63074;44.696;10.358;2023-07-20T12:52:21;8.15;;;3.80;;
74523;SDS011;63074;44.696;10.358;2023-07-20T12:54:47;7.72;;;3.60;;
74523;SDS011;63074;44.696;10.358;2023-07-20T12:57:14;8.32;;;3.63;;
74523;SDS011;63074;44.696;10.358;2023-07-20T12:59:40;10.73;;;4.20;;
74523;SDS011;63074;44.696;10.358;2023-07-20T13:02:06;6.43;;;3.85;;
74523;SDS011;63074;44.696;10.358;2023-07-20T13:04:32;8.20;;;4.18;;
74523;SDS011;63074;44.696;10.358;2023-07-20T13:06:58;7.88;;;3.92;;
74523;SDS011;63074;44.696;10.358;2023-07-20T13:09:25;9.60;;;4.28;;
74523;SDS011;63074;44.696;10.358;2023-07-20T13:11:51;9.30;;;4.53;;
74523;SDS011;63074;44.696;10.358;2023-07-20T13:14:18;8.57;;;3.75;;
74523;SDS011;63074;44.696;10.358;2023-07-20T13:16:44;7.93;;;4.05;;
74523;SDS011;63074;44.696;10.358;2023-07-20T13:19:10;5.75;;;3.65;;
74523;SDS011;63074;44.696;10.358;2023-07-20T13:21:36;7.05;;;4.03;;
74523;SDS011;63074;44.696;10.358;2023-07-20T13:24:02;7.22;;;4.00;;
74523;SDS011;63074;44.696;10.358;2023-07-20T13:26:30;7.38;;;4.15;;
74523;SDS011;63074;44.696;10.358;2023-07-20T13:28:56;9.32;;;3.58;;
74523;SDS011;63074;44.696;10.358;2023-07-20T13:31:23;7.85;;;3.55;;
74523;SDS011;63074;44.696;10.358;2023-07-20T13:33:50;8.52;;;3.88;;
74523;SDS011;63074;44.696;10.358;2023-07-20T13:36:16;7.75;;;3.85;;
74523;SDS011;63074;44.696;10.358;2023-07-20T13:38:42;7.07;;;3.85;;
74523;SDS011;63074;44.696;10.358;2023-07-20T13:41:08;5.88;;;4.32;;
74523;SDS011;63074;44.696;10.358;2023-07-20T13:43:34;18.65;;;5.93;;
74523;SDS011;63074;44.696;10.358;2023-07-20T13:46:00;7.53;;;3.95;;
74523;SDS011;63074;44.696;10.358;2023-07-20T13:48:27;7.85;;;3.58;;
74523;SDS011;63074;44.696;10.358;2023-07-20T13:50:53;8.43;;;3.72;;
74523;SDS011;63074;44.696;10.358;2023-07-20T13:53:20;6.72;;;3.60;;
74523;SDS011;63074;44.696;10.358;2023-07-20T13:55:47;10.77;;;4.22;;
74523;SDS011;63074;44.696;10.358;2023-07-20T13:58:13;7.68;;;4.15;;
74523;SDS011;63074;44.696;10.358;2023-07-20T14:00:40;8.02;;;4.13;;
74523;SDS011;63074;44.696;10.358;2023-07-20T14:03:06;6.32;;;4.05;;
74523;SDS011;63074;44.696;10.358;2023-07-20T14:05:33;5.22;;;3.78;;
74523;SDS011;63074;44.696;10.358;2023-07-20T14:07:59;6.53;;;4.43;;
74523;SDS011;63074;44.696;10.358;2023-07-20T14:10:25;6.60;;;4.30;;
74523;SDS011;63074;44.696;10.358;2023-07-20T14:12:51;6.35;;;3.85;;
74523;SDS011;63074;44.696;10.358;2023-07-20T14:15:17;7.30;;;4.05;;
74523;SDS011;63074;44.696;10.358;2023-07-20T14:17:45;7.68;;;4.82;;
74523;SDS011;63074;44.696;10.358;2023-07-20T14:20:11;9.55;;;5.00;;
74523;SDS011;63074;44.696;10.358;2023-07-20T14:22:37;8.68;;;4.32;;
74523;SDS011;63074;44.696;10.358;2023-07-20T14:25:03;9.50;;;4.45;;
74523;SDS011;63074;44.696;10.358;2023-07-20T14:29:56;8.25;;;4.40;;
74523;SDS011;63074;44.696;10.358;2023-07-20T14:32:22;7.35;;;4.28;;
74523;SDS011;63074;44.696;10.358;2023-07-20T14:34:49;7.15;;;4.07;;
74523;SDS011;63074;44.696;10.358;2023-07-20T14:37:16;8.65;;;4.57;;
74523;SDS011;63074;44.696;10.358;2023-07-20T14:39:42;10.45;;;5.30;;
74523;SDS011;63074;44.696;10.358;2023-07-20T14:42:08;8.80;;;4.82;;
74523;SDS011;63074;44.696;10.358;2023-07-20T14:44:34;9.75;;;5.10;;
74523;SDS011;63074;44.696;10.358;2023-07-20T14:47:00;10.63;;;4.80;;
74523;SDS011;63074;44.696;10.358;2023-07-20T14:49:27;10.85;;;4.75;;
74523;SDS011;63074;44.696;10.358;2023-07-20T14:51:53;9.50;;;5.47;;
74523;SDS011;63074;44.696;10.358;2023-07-20T14:54:19;12.73;;;5.72;;
74523;SDS011;63074;44.696;10.358;2023-07-20T14:56:49;9.23;;;5.15;;
74523;SDS011;63074;44.696;10.358;2023-07-20T14:59:17;7.63;;;4.80;;
74523;SDS011;63074;44.696;10.358;2023-07-20T15:01:44;10.57;;;4.82;;
74523;SDS011;63074;44.696;10.358;2023-07-20T15:04:11;8.23;;;4.40;;
74523;SDS011;63074;44.696;10.358;2023-07-20T15:06:38;22.40;;;5.85;;
74523;SDS011;63074;44.696;10.358;2023-07-20T15:09:04;10.90;;;4.70;;
74523;SDS011;63074;44.696;10.358;2023-07-20T15:11:30;11.30;;;4.90;;
74523;SDS011;63074;44.696;10.358;2023-07-20T15:13:58;9.30;;;4.60;;
74523;SDS011;63074;44.696;10.358;2023-07-20T15:16:24;8.73;;;5.10;;
74523;SDS011;63074;44.696;10.358;2023-07-20T15:18:50;8.85;;;6.32;;
74523;SDS011;63074;44.696;10.358;2023-07-20T15:21:16;8.60;;;4.95;;
74523;SDS011;63074;44.696;10.358;2023-07-20T15:23:43;6.80;;;4.40;;
74523;SDS011;63074;44.696;10.358;2023-07-20T15:26:09;7.97;;;4.97;;
74523;SDS011;63074;44.696;10.358;2023-07-20T15:28:37;9.88;;;4.63;;